createdAt,value
2018-02-01T00:00:38.054Z,99299.39
2018-02-01T00:03:07.639Z,99296.41
2018-02-01T00:05:36.777Z,99297.33
2018-02-01T00:08:05.898Z,99301.73
2018-02-01T00:10:35.427Z,99302.98
2018-02-01T00:13:04.754Z,99301.79
2018-02-01T00:15:34.181Z,99304.47
2018-02-01T00:18:04.403Z,99300.55
2018-02-01T00:20:34.770Z,99293.45
2018-02-01T00:23:04.255Z,99298.55
2018-02-01T00:25:33.968Z,99293.52
2018-02-01T00:28:04.038Z,99305.17
2018-02-01T00:30:33.615Z,99303.45
2018-02-01T00:33:03.264Z,99301.02
2018-02-01T00:35:33.477Z,99302.91
2018-02-01T00:38:05.452Z,99302.17
2018-02-01T00:40:34.721Z,99298.81
2018-02-01T00:43:04.412Z,99299.23
2018-02-01T00:45:34.316Z,99300.78
2018-02-01T00:48:08.897Z,99303.05
2018-02-01T00:50:39.751Z,99310.76
2018-02-01T00:53:08.970Z,99309.70
2018-02-01T00:55:38.359Z,99307.94
2018-02-01T00:58:08.304Z,99297.51
2018-02-01T01:00:37.590Z,99302.75
2018-02-01T01:03:06.701Z,99309.00
2018-02-01T01:05:36.410Z,99301.66
2018-02-01T01:08:06.396Z,99304.03
2018-02-01T01:10:36.480Z,99306.57
2018-02-01T01:13:06.126Z,99301.52
2018-02-01T01:15:35.387Z,99309.22
2018-02-01T01:18:05.489Z,99305.12
2018-02-01T01:20:35.144Z,99308.45
2018-02-01T01:23:04.580Z,99297.72
2018-02-01T01:25:33.802Z,99305.98
2018-02-01T01:28:04.786Z,99310.73
2018-02-01T01:30:33.896Z,99319.49
2018-02-01T01:33:03.703Z,99317.00
2018-02-01T01:35:32.888Z,99321.67
2018-02-01T01:38:02.815Z,99316.56
2018-02-01T01:40:32.036Z,99324.91
2018-02-01T01:43:01.180Z,99314.16
2018-02-01T01:45:30.382Z,99304.30
2018-02-01T01:47:59.960Z,99284.66
2018-02-01T01:50:30.451Z,99293.13
2018-02-01T01:52:59.673Z,99283.63
2018-02-01T01:55:30.359Z,99289.42
2018-02-01T01:57:59.684Z,99287.42
2018-02-01T02:00:28.960Z,99297.78
2018-02-01T02:02:58.599Z,99295.05
2018-02-01T02:05:27.722Z,99291.42
2018-02-01T02:07:56.909Z,99297.80
2018-02-01T02:10:27.508Z,99296.91
2018-02-01T02:12:56.836Z,99283.97
2018-02-01T02:15:26.174Z,99271.59
2018-02-01T02:17:55.728Z,99270.28
2018-02-01T02:20:24.873Z,99279.22
2018-02-01T02:22:54.198Z,99281.16
2018-02-01T02:25:23.808Z,99284.11
2018-02-01T02:27:53.240Z,99278.78
2018-02-01T02:30:22.413Z,99279.33
2018-02-01T02:32:52.522Z,99276.64
2018-02-01T02:35:21.672Z,99280.12
2018-02-01T02:37:52.021Z,99275.47
2018-02-01T02:40:22.834Z,99269.89
2018-02-01T02:42:52.447Z,99269.35
2018-02-01T02:45:21.703Z,99267.11
2018-02-01T02:47:53.466Z,99264.66
2018-02-01T02:50:22.608Z,99263.91
2018-02-01T02:52:52.130Z,99259.27
2018-02-01T02:55:21.764Z,99257.72
2018-02-01T02:57:50.899Z,99267.27
2018-02-01T03:00:20.100Z,99268.03
2018-02-01T03:02:50.798Z,99264.89
2018-02-01T03:05:20.225Z,99265.09
2018-02-01T03:07:49.438Z,99264.03
2018-02-01T03:10:19.078Z,99267.64
2018-02-01T03:12:48.336Z,99266.75
2018-02-01T03:15:17.755Z,99265.87
2018-02-01T03:17:47.825Z,99263.16
2018-02-01T03:20:17.058Z,99276.92
2018-02-01T03:22:46.274Z,99288.56
2018-02-01T03:25:15.692Z,99282.53
2018-02-01T03:27:44.930Z,99279.13
2018-02-01T03:30:15.497Z,99287.50
2018-02-01T03:32:44.610Z,99293.11
2018-02-01T03:35:13.806Z,99292.03
2018-02-01T03:37:43.296Z,99297.23
2018-02-01T03:40:12.441Z,99292.55
2018-02-01T03:42:41.571Z,99287.95
2018-02-01T03:45:11.111Z,99276.81
2018-02-01T03:47:40.320Z,99276.95
2018-02-01T03:50:09.492Z,99287.16
2018-02-01T03:52:39.368Z,99298.78
2018-02-01T03:55:09.009Z,99297.69
2018-02-01T03:58:09.174Z,99297.78
2018-02-01T04:00:39.338Z,99299.87
2018-02-01T04:03:08.508Z,99293.36
2018-02-01T04:05:38.160Z,99297.81
2018-02-01T04:08:08.053Z,99298.69
2018-02-01T04:10:37.208Z,99300.39
2018-02-01T04:13:06.393Z,99297.22
2018-02-01T04:15:35.840Z,99289.90
2018-02-01T04:18:06.036Z,99282.95
2018-02-01T04:20:36.468Z,99281.75
2018-02-01T04:23:05.890Z,99282.52
2018-02-01T04:25:34.996Z,99282.70
2018-02-01T04:28:05.959Z,99282.70
2018-02-01T04:30:35.115Z,99279.91
2018-02-01T04:33:04.523Z,99282.49
2018-02-01T04:35:33.899Z,99283.59
2018-02-01T04:38:04.297Z,99286.73
2018-02-01T04:40:33.818Z,99284.35
2018-02-01T04:43:03.274Z,99289.84
2018-02-01T04:45:32.382Z,99284.58
2018-02-01T04:48:02.400Z,99288.26
2018-02-01T04:50:31.873Z,99292.24
2018-02-01T04:53:01.158Z,99296.28
2018-02-01T04:55:30.413Z,99290.49
2018-02-01T04:57:59.966Z,99285.52
2018-02-01T05:00:29.211Z,99280.95
2018-02-01T05:02:58.285Z,99281.38
2018-02-01T05:05:27.773Z,99283.65
2018-02-01T05:07:56.879Z,99289.16
2018-02-01T05:10:26.024Z,99286.98
2018-02-01T05:12:55.241Z,99285.34
2018-02-01T05:15:24.378Z,99279.38
2018-02-01T05:17:53.819Z,99279.41
2018-02-01T05:20:22.960Z,99272.00
2018-02-01T05:22:52.127Z,99269.09
2018-02-01T05:25:21.541Z,99265.46
2018-02-01T05:27:50.669Z,99262.76
2018-02-01T05:30:19.810Z,99258.73
2018-02-01T05:32:49.209Z,99260.36
2018-02-01T05:35:18.695Z,99261.87
2018-02-01T05:37:47.805Z,99256.03
2018-02-01T05:40:17.211Z,99259.39
2018-02-01T05:42:46.833Z,99263.06
2018-02-01T05:45:15.958Z,99267.27
2018-02-01T05:47:45.376Z,99260.67
2018-02-01T05:50:14.615Z,99253.48
2018-02-01T05:52:43.715Z,99257.06
2018-02-01T05:55:13.957Z,99256.03
2018-02-01T05:57:43.095Z,99260.88
2018-02-01T06:00:12.496Z,99267.52
2018-02-01T06:02:41.818Z,99268.37
2018-02-01T06:05:11.404Z,99262.85
2018-02-01T06:07:40.926Z,99267.64
2018-02-01T06:10:10.539Z,99271.03
2018-02-01T06:12:39.901Z,99275.40
2018-02-01T06:15:11.609Z,99276.70
2018-02-01T06:17:50.196Z,99284.45
2018-02-01T06:20:19.768Z,99280.39
2018-02-01T06:22:49.102Z,99283.25
2018-02-01T06:28:00.684Z,99286.95
2018-02-01T06:30:30.878Z,99291.72
2018-02-01T06:33:17.958Z,99290.30
2018-02-01T06:35:47.643Z,99287.05
2018-02-01T06:38:16.882Z,99292.45
2018-02-01T06:40:46.592Z,99287.56
2018-02-01T06:43:16.751Z,99292.80
2018-02-01T06:45:46.224Z,99293.88
2018-02-01T06:48:15.491Z,99288.62
2018-02-01T06:50:58.257Z,99288.66
2018-02-01T06:53:27.781Z,99289.01
2018-02-01T06:56:05.263Z,99290.38
2018-02-01T06:58:38.928Z,99286.41
2018-02-01T07:01:08.770Z,99294.98
2018-02-01T07:03:40.120Z,99301.02
2018-02-01T07:06:27.288Z,99302.02
2018-02-01T07:08:59.926Z,99304.88
2018-02-01T07:11:34.531Z,99303.48
2018-02-01T07:14:05.178Z,99310.42
2018-02-01T07:16:40.847Z,99314.10
2018-02-01T07:19:10.135Z,99314.30
2018-02-01T07:21:39.305Z,99321.60
2018-02-01T07:24:08.601Z,99319.30
2018-02-01T07:26:38.042Z,99314.52
2018-02-01T07:29:07.180Z,99311.77
2018-02-01T07:31:36.584Z,99308.75
2018-02-01T07:34:06.682Z,99314.84
2018-02-01T07:36:35.812Z,99320.95
2018-02-01T07:39:05.880Z,99325.37
2018-02-01T07:41:35.129Z,99329.59
2018-02-01T07:44:05.689Z,99333.16
2018-02-01T07:46:34.944Z,99341.45
2018-02-01T07:49:04.265Z,99340.74
2018-02-01T07:51:33.514Z,99344.77
2018-02-01T07:54:04.992Z,99346.72
2018-02-01T07:56:35.507Z,99347.84
2018-02-01T07:59:04.727Z,99346.09
2018-02-01T08:01:34.810Z,99337.56
2018-02-01T08:04:04.985Z,99342.84
2018-02-01T08:06:35.483Z,99342.94
2018-02-01T08:09:05.295Z,99342.90
2018-02-01T08:11:36.504Z,99348.42
2018-02-01T08:14:06.748Z,99354.47
2018-02-01T08:16:36.277Z,99360.92
2018-02-01T08:19:05.491Z,99364.98
2018-02-01T08:21:34.720Z,99364.55
2018-02-01T08:24:05.034Z,99371.08
2018-02-01T08:26:35.444Z,99375.09
2018-02-01T08:29:04.859Z,99376.19
2018-02-01T08:31:34.331Z,99384.09
2018-02-01T08:34:05.536Z,99385.38
2018-02-01T08:36:34.685Z,99384.97
2018-02-01T08:39:04.638Z,99377.53
2018-02-01T08:41:33.878Z,99374.05
2018-02-01T08:44:04.467Z,99371.32
2018-02-01T08:46:33.642Z,99372.73
2018-02-01T08:49:03.290Z,99374.66
2018-02-01T08:51:34.039Z,99377.55
2018-02-01T08:54:08.399Z,99376.22
2018-02-01T08:56:38.229Z,99383.24
2018-02-01T08:59:07.349Z,99373.34
2018-02-01T09:01:37.950Z,99379.48
2018-02-01T09:04:07.399Z,99386.20
2018-02-01T09:06:37.937Z,99388.05
2018-02-01T09:09:07.130Z,99387.78
2018-02-01T09:11:37.731Z,99382.77
2018-02-01T09:14:06.896Z,99384.53
2018-02-01T09:16:36.101Z,99386.55
2018-02-01T09:19:07.960Z,99400.73
2018-02-01T09:21:37.072Z,99399.95
2018-02-01T09:24:06.907Z,99404.51
2018-02-01T09:26:36.009Z,99404.12
2018-02-01T09:29:05.153Z,99402.78
2018-02-01T09:31:35.789Z,99398.69
2018-02-01T09:34:05.509Z,99401.29
2018-02-01T09:36:34.947Z,99406.33
2018-02-01T09:39:04.387Z,99403.95
2018-02-01T09:41:33.463Z,99412.64
2018-02-01T09:44:04.446Z,99414.11
2018-02-01T09:46:33.622Z,99418.56
2018-02-01T09:49:02.993Z,99414.69
2018-02-01T09:51:34.020Z,99405.71
2018-02-01T09:54:04.466Z,99410.47
2018-02-01T09:56:40.559Z,99413.77
2018-02-01T09:59:10.979Z,99422.81
2018-02-01T10:01:41.274Z,99417.48
2018-02-01T10:04:11.613Z,99420.22
2018-02-01T10:06:42.678Z,99418.41
2018-02-01T10:09:11.978Z,99422.49
2018-02-01T10:11:41.697Z,99425.08
2018-02-01T10:14:11.139Z,99417.67
2018-02-01T10:16:40.284Z,99416.61
2018-02-01T10:19:09.443Z,99425.53
2018-02-01T10:21:39.212Z,99425.66
2018-02-01T10:24:08.739Z,99430.14
2018-02-01T10:26:37.883Z,99422.95
2018-02-01T10:29:08.364Z,99422.80
2018-02-01T10:31:39.253Z,99420.30
2018-02-01T10:34:08.445Z,99426.72
2018-02-01T10:36:37.645Z,99433.30
2018-02-01T10:39:37.363Z,99426.50
2018-02-01T10:42:07.902Z,99432.48
2018-02-01T10:44:37.236Z,99419.77
2018-02-01T10:47:06.487Z,99420.79
2018-02-01T10:49:35.789Z,99418.47
2018-02-01T10:52:06.150Z,99419.78
2018-02-01T10:54:35.663Z,99409.16
2018-02-01T10:57:04.792Z,99409.03
2018-02-01T10:59:36.136Z,99414.98
2018-02-01T11:02:08.154Z,99417.00
2018-02-01T11:04:39.434Z,99421.95
2018-02-01T11:07:08.667Z,99410.81
2018-02-01T11:09:38.180Z,99411.81
2018-02-01T11:12:07.385Z,99413.28
2018-02-01T11:14:56.997Z,99417.42
2018-02-01T11:17:26.555Z,99413.34
2018-02-01T11:19:55.653Z,99410.90
2018-02-01T11:22:25.315Z,99407.41
2018-02-01T11:24:55.917Z,99405.70
2018-02-01T11:27:25.980Z,99405.65
2018-02-01T11:29:55.119Z,99405.11
2018-02-01T11:32:24.576Z,99409.95
2018-02-01T11:34:53.736Z,99399.11
2018-02-01T11:37:22.827Z,99394.59
2018-02-01T11:39:52.234Z,99393.05
2018-02-01T11:42:21.321Z,99382.50
2018-02-01T11:44:50.783Z,99379.25
2018-02-01T11:47:20.768Z,99374.84
2018-02-01T11:49:50.058Z,99373.34
2018-02-01T11:52:20.102Z,99371.45
2018-02-01T11:54:50.240Z,99374.52
2018-02-01T11:57:19.410Z,99371.92
2018-02-01T11:59:50.565Z,99370.23
2018-02-01T12:02:20.661Z,99367.56
2018-02-01T12:04:49.935Z,99367.98
2018-02-01T12:07:19.350Z,99372.80
2018-02-01T12:09:48.509Z,99380.55
2018-02-01T12:12:17.694Z,99373.24
2018-02-01T12:14:47.208Z,99374.27
2018-02-01T12:17:16.442Z,99363.47
2018-02-01T12:19:45.723Z,99357.39
2018-02-01T12:22:15.217Z,99358.02
2018-02-01T12:24:46.212Z,99370.10
2018-02-01T12:27:15.358Z,99378.34
2018-02-01T12:29:44.915Z,99364.87
2018-02-01T12:35:15.078Z,99376.66
2018-02-01T12:37:44.228Z,99368.54
2018-02-01T12:40:13.384Z,99367.69
2018-02-01T12:42:42.804Z,99365.83
2018-02-01T12:45:11.979Z,99359.30
2018-02-01T12:47:42.018Z,99353.58
2018-02-01T12:50:11.530Z,99352.95
2018-02-01T12:52:40.878Z,99360.41
2018-02-01T12:55:09.992Z,99358.00
2018-02-01T12:57:40.076Z,99356.08
2018-02-01T13:00:09.427Z,99356.33
2018-02-01T13:02:38.598Z,99350.42
2018-02-01T13:05:08.177Z,99352.92
2018-02-01T13:07:37.487Z,99347.98
2018-02-01T13:10:06.590Z,99360.24
2018-02-01T13:12:37.325Z,99352.91
2018-02-01T13:15:06.862Z,99349.05
2018-02-01T13:17:36.323Z,99358.55
2018-02-01T13:20:06.961Z,99365.59
2018-02-01T13:22:37.403Z,99336.77
2018-02-01T13:25:07.760Z,99338.34
2018-02-01T13:27:37.341Z,99338.20
2018-02-01T13:30:06.595Z,99334.96
2018-02-01T13:32:35.768Z,99332.86
2018-02-01T13:35:05.273Z,99335.50
2018-02-01T13:37:34.430Z,99343.95
2018-02-01T13:40:05.938Z,99345.91
2018-02-01T13:42:35.066Z,99340.84
2018-02-01T13:45:04.628Z,99334.92
2018-02-01T13:47:34.064Z,99333.30
2018-02-01T13:50:04.865Z,99338.22
2018-02-01T13:52:35.451Z,99340.30
2018-02-01T13:55:05.007Z,99344.84
2018-02-01T13:57:34.180Z,99348.66
2018-02-01T14:00:04.263Z,99357.34
2018-02-01T14:02:34.780Z,99354.95
2018-02-01T14:05:04.431Z,99337.70
2018-02-01T14:07:33.594Z,99348.19
2018-02-01T14:10:04.335Z,99344.81
2018-02-01T14:12:33.489Z,99349.02
2018-02-01T14:15:03.059Z,99342.25
2018-02-01T14:17:32.655Z,99328.68
2018-02-01T14:20:02.934Z,99335.86
2018-02-01T14:22:32.215Z,99343.48
2018-02-01T14:25:02.017Z,99345.71
2018-02-01T14:27:31.379Z,99344.06
2018-02-01T14:30:00.921Z,99341.66
2018-02-01T14:32:30.309Z,99343.80
2018-02-01T14:35:00.611Z,99342.53
2018-02-01T14:37:30.467Z,99334.91
2018-02-01T14:39:59.603Z,99342.74
2018-02-01T14:42:28.758Z,99339.92
2018-02-01T14:44:57.890Z,99335.45
2018-02-01T14:47:27.078Z,99340.06
2018-02-01T14:49:56.502Z,99337.52
2018-02-01T14:52:25.693Z,99332.04
2018-02-01T14:54:56.625Z,99339.26
2018-02-01T14:57:26.326Z,99325.36
2018-02-01T14:59:55.670Z,99331.17
2018-02-01T15:02:24.809Z,99328.92
2018-02-01T15:04:55.345Z,99334.11
2018-02-01T15:07:24.480Z,99337.44
2018-02-01T15:09:53.625Z,99336.11
2018-02-01T15:12:23.135Z,99336.64
2018-02-01T15:14:52.384Z,99340.25
2018-02-01T15:17:21.525Z,99336.41
2018-02-01T15:19:51.031Z,99342.74
2018-02-01T15:22:20.344Z,99340.39
2018-02-01T15:24:49.682Z,99334.02
2018-02-01T15:27:18.808Z,99331.49
2018-02-01T15:29:50.497Z,99328.69
2018-02-01T15:32:20.960Z,99330.16
2018-02-01T15:34:52.378Z,99324.89
2018-02-01T15:37:20.982Z,99327.75
2018-02-01T15:39:50.419Z,99338.04
2018-02-01T15:42:19.852Z,99339.30
2018-02-01T15:44:49.294Z,99347.91
2018-02-01T15:47:19.563Z,99347.09
2018-02-01T15:49:48.707Z,99349.50
2018-02-01T15:52:18.008Z,99348.43
2018-02-01T15:54:47.559Z,99348.97
2018-02-01T15:57:16.826Z,99354.45
2018-02-01T15:59:47.132Z,99343.73
2018-02-01T16:02:16.860Z,99362.41
2018-02-01T16:04:46.056Z,99366.42
2018-02-01T16:07:15.338Z,99370.79
2018-02-01T16:09:46.919Z,99395.11
2018-02-01T16:12:16.326Z,99395.66
2018-02-01T16:14:45.610Z,99398.35
2018-02-01T16:17:14.847Z,99378.97
2018-02-01T16:19:43.996Z,99349.84
2018-02-01T16:22:14.469Z,99347.76
2018-02-01T16:24:43.638Z,99364.27
2018-02-01T16:27:12.782Z,99367.42
2018-02-01T16:29:41.797Z,99377.91
2018-02-01T16:32:11.082Z,99370.93
2018-02-01T16:34:40.794Z,99373.80
2018-02-01T16:37:09.956Z,99377.94
2018-02-01T16:39:39.322Z,99378.36
2018-02-01T16:42:08.943Z,99381.48
2018-02-01T16:44:38.116Z,99387.90
2018-02-01T16:47:07.267Z,99385.51
2018-02-01T16:49:38.097Z,99389.05
2018-02-01T16:52:07.265Z,99392.78
2018-02-01T16:54:36.411Z,99391.73
2018-02-01T16:57:06.027Z,99390.11
2018-02-01T16:59:35.291Z,99396.34
2018-02-01T17:02:06.045Z,99400.30
2018-02-01T17:04:35.641Z,99395.01
2018-02-01T17:07:05.040Z,99405.09
2018-02-01T17:09:35.796Z,99406.07
2018-02-01T17:12:06.452Z,99405.89
2018-02-01T17:14:37.519Z,99408.48
2018-02-01T17:17:06.712Z,99405.26
2018-02-01T17:19:36.863Z,99405.87
2018-02-01T17:22:06.383Z,99415.91
2018-02-01T17:24:38.453Z,99409.23
2018-02-01T17:27:08.296Z,99407.03
2018-02-01T17:29:37.436Z,99412.64
2018-02-01T17:32:06.649Z,99419.53
2018-02-01T17:34:42.589Z,99417.83
2018-02-01T17:37:15.438Z,99418.57
2018-02-01T17:39:45.282Z,99420.72
2018-02-01T17:42:14.463Z,99420.58
2018-02-01T17:44:44.178Z,99417.46
2018-02-01T17:47:13.427Z,99418.11
2018-02-01T17:49:42.679Z,99413.36
2018-02-01T17:52:11.793Z,99423.33
2018-02-01T17:54:40.975Z,99419.22
2018-02-01T17:57:10.183Z,99422.19
2018-02-01T17:59:39.721Z,99419.52
2018-02-01T18:02:08.941Z,99420.19
2018-02-01T18:04:38.144Z,99424.30
2018-02-01T18:07:11.631Z,99427.91
2018-02-01T18:09:41.860Z,99431.88
2018-02-01T18:12:11.503Z,99432.48
2018-02-01T18:14:41.825Z,99432.80
2018-02-01T18:17:14.505Z,99433.01
2018-02-01T18:19:45.188Z,99444.16
2018-02-01T18:22:14.467Z,99447.29
2018-02-01T18:24:43.675Z,99446.99
2018-02-01T18:27:12.836Z,99448.48
2018-02-01T18:29:42.435Z,99445.56
2018-02-01T18:32:12.010Z,99445.60
2018-02-01T18:34:41.257Z,99450.05
2018-02-01T18:37:10.462Z,99449.34
2018-02-01T18:39:40.093Z,99456.57
2018-02-01T18:42:09.349Z,99458.50
2018-02-01T18:44:39.857Z,99464.48
2018-02-01T18:47:09.304Z,99461.64
2018-02-01T18:49:38.600Z,99460.52
2018-02-01T18:52:07.887Z,99462.76
2018-02-01T18:54:37.583Z,99455.69
2018-02-01T18:57:06.972Z,99455.23
2018-02-01T18:59:36.132Z,99454.07
2018-02-01T19:02:07.630Z,99461.40
2018-02-01T19:04:37.620Z,99455.31
2018-02-01T19:07:06.831Z,99464.53
2018-02-01T19:09:36.631Z,99467.67
2018-02-01T19:12:06.503Z,99471.79
2018-02-01T19:14:36.355Z,99466.19
2018-02-01T19:17:05.973Z,99473.97
2018-02-01T19:19:35.238Z,99472.45
2018-02-01T19:22:05.484Z,99475.87
2018-02-01T19:24:35.145Z,99478.86
2018-02-01T19:27:04.528Z,99489.17
2018-02-01T19:29:33.722Z,99489.46
2018-02-01T19:32:04.299Z,99497.34
2018-02-01T19:34:34.295Z,99500.77
2018-02-01T19:41:39.626Z,99508.86
2018-02-01T19:44:08.808Z,99512.90
2018-02-01T19:46:38.640Z,99517.42
2018-02-01T19:49:07.919Z,99518.49
2018-02-01T19:51:37.058Z,99508.09
2018-02-01T19:54:06.505Z,99509.91
2018-02-01T19:56:36.870Z,99506.58
2018-02-01T19:59:06.012Z,99508.77
2018-02-01T20:01:35.405Z,99508.12
2018-02-01T20:04:05.432Z,99509.72
2018-02-01T20:06:34.727Z,99519.35
2018-02-01T20:09:04.704Z,99528.13
2018-02-01T20:11:35.959Z,99531.71
2018-02-01T20:14:06.323Z,99529.38
2018-02-01T20:16:36.512Z,99536.21
2018-02-01T20:19:05.801Z,99531.81
2018-02-01T20:21:35.026Z,99536.66
2018-02-01T20:24:05.355Z,99532.61
2018-02-01T20:26:34.783Z,99536.86
2018-02-01T20:29:04.711Z,99542.59
2018-02-01T20:31:34.357Z,99550.78
2018-02-01T20:34:05.593Z,99542.20
2018-02-01T20:36:37.615Z,99541.31
2018-02-01T20:39:07.702Z,99537.85
2018-02-01T20:41:40.007Z,99538.16
2018-02-01T20:44:09.610Z,99541.56
2018-02-01T20:46:39.998Z,99545.18
2018-02-01T20:49:09.200Z,99544.33
2018-02-01T20:51:38.345Z,99548.16
2018-02-01T20:54:07.858Z,99554.80
2018-02-01T20:56:37.095Z,99550.33
2018-02-01T20:59:06.461Z,99554.39
2018-02-01T21:01:35.882Z,99555.16
2018-02-01T21:04:06.325Z,99548.30
2018-02-01T21:09:29.352Z,99558.06
2018-02-01T21:11:58.286Z,99556.59
2018-02-01T21:14:27.112Z,99557.54
2018-02-01T21:16:55.897Z,99568.87
2018-02-01T21:19:24.693Z,99568.03
2018-02-01T21:21:55.491Z,99571.23
2018-02-01T21:24:24.947Z,99570.97
2018-02-01T21:26:53.769Z,99566.73
2018-02-01T21:29:22.904Z,99570.51
2018-02-01T21:31:52.042Z,99578.30
2018-02-01T21:34:20.977Z,99580.33
2018-02-01T21:36:50.132Z,99581.52
2018-02-01T21:39:19.029Z,99584.83
2018-02-01T21:41:47.820Z,99583.27
2018-02-01T21:44:17.309Z,99590.11
2018-02-01T21:46:46.200Z,99590.34
2018-02-01T21:49:14.968Z,99594.94
2018-02-01T21:51:44.106Z,99594.62
2018-02-01T21:54:12.918Z,99598.21
2018-02-01T21:56:41.768Z,99597.70
2018-02-01T21:59:11.021Z,99591.55
2018-02-01T22:01:39.944Z,99594.88
2018-02-01T22:04:08.775Z,99596.58
2018-02-01T22:06:38.892Z,99602.43
2018-02-01T22:09:07.685Z,99601.79
2018-02-01T22:11:36.995Z,99599.99
2018-02-01T22:14:06.757Z,99606.90
2018-02-01T22:16:39.830Z,99606.45
2018-02-01T22:19:08.587Z,99606.58
2018-02-01T22:21:37.734Z,99604.41
2018-02-01T22:24:06.533Z,99606.72
2018-02-01T22:26:36.292Z,99605.86
2018-02-01T22:29:05.633Z,99611.40
2018-02-01T22:31:34.412Z,99607.84
2018-02-01T22:34:05.145Z,99608.30
2018-02-01T22:36:35.466Z,99613.80
2018-02-01T22:39:04.744Z,99619.17
2018-02-01T22:41:33.520Z,99617.95
2018-02-01T22:44:03.564Z,99617.66
2018-02-01T22:46:47.202Z,99618.81
2018-02-01T22:49:16.272Z,99613.75
2018-02-01T22:51:45.116Z,99613.69
2018-02-01T22:54:14.279Z,99617.80
2018-02-01T22:56:44.403Z,99613.19
2018-02-01T22:59:14.036Z,99612.68
2018-02-01T23:01:45.179Z,99612.97
2018-02-01T23:04:15.223Z,99610.03
2018-02-01T23:06:44.248Z,99609.54
2018-02-01T23:09:13.076Z,99602.77
2018-02-01T23:11:42.092Z,99603.95
2018-02-01T23:14:11.003Z,99605.20
2018-02-01T23:16:39.808Z,99607.93
2018-02-01T23:19:09.040Z,99612.27
2018-02-01T23:21:37.857Z,99609.67
2018-02-01T23:24:06.744Z,99615.20
2018-02-01T23:26:36.024Z,99622.27
2018-02-01T23:29:04.928Z,99616.64
2018-02-01T23:31:33.762Z,99620.82
2018-02-01T23:34:05.103Z,99629.08
2018-02-01T23:36:34.054Z,99629.19
2018-02-01T23:39:03.322Z,99626.47
2018-02-01T23:41:32.461Z,99625.95
2018-02-01T23:44:03.461Z,99624.94
2018-02-01T23:46:33.293Z,99622.27
2018-02-01T23:49:02.520Z,99620.16
2018-02-01T23:51:31.432Z,99618.35
2018-02-01T23:54:00.330Z,99623.47
2018-02-01T23:56:29.892Z,99623.70
2018-02-01T23:59:03.128Z,99630.13
